Okazaki, Japan
Current Conditions -  °F | °C
As of 4:00 PM on Friday 28 Nov 2014 (Local Time) from RJGG Reporting Station
Broken Clouds Broken Clouds  
Wind Chill: 61°   Ceiling: Unl
Heat Index: 61°   Visibility: 6mi
Dew Point: 54°   Wind: 3mph
Humidity: 77%   Direction: 120°ESE
Pressure: 30.18"   Gusts: NA
Location:  34.96°N, 137.16°E
Report Text: RJGG 280700Z 12003KT 9999 FEW015 SCT080 BKN/// 16/12 Q1022 NOSIG
Loading
Personal Weather Stations






























Interactive Weather Map New forecast layout! Learn more

10-Day Weather Forecast

Advertisements
Track Severe Weather on mobile